Time;durP1;ratioP1;P1;durP2;ratioP2;P2;SDS_P1;SDS_P2;PMS_P1;PMS_P2;Temp;Humidity;BMP_temperature;BMP_pressure;BME280_temperature;BME280_humidity;BME280_pressure;Samples;Min_cycle;Max_cycle;Signal;HPM_P1;HPM_P2
2021/01/12 00:00:28;;;;;;;14.50;2.17;;;7.10;99.90;;;;;;5041925;28;20118;-65
2021/01/12 00:02:55;;;;;;;10.98;2.13;;;7.10;99.90;;;;;;5039253;28;20037;-64
2021/01/12 00:05:21;;;;;;;10.75;2.83;;;7.10;99.90;;;;;;5043802;28;20116;-65
2021/01/12 00:07:48;;;;;;;8.00;2.90;;;7.20;99.90;;;;;;5040340;28;20037;-65
2021/01/12 00:10:14;;;;;;;10.13;1.75;;;7.10;99.90;;;;;;5042660;28;20061;-65
2021/01/12 00:12:39;;;;;;;6.32;1.83;;;7.20;99.90;;;;;;5047387;28;20125;-65
2021/01/12 00:15:06;;;;;;;6.25;1.73;;;7.10;99.90;;;;;;5041712;28;20494;-66
2021/01/12 00:17:32;;;;;;;9.82;2.45;;;7.10;99.90;;;;;;5041482;28;20159;-66
2021/01/12 00:19:58;;;;;;;8.98;1.63;;;7.20;99.90;;;;;;5042132;28;20053;-66
2021/01/12 00:22:24;;;;;;;6.90;1.88;;;7.10;99.90;;;;;;5040949;28;20053;-65
2021/01/12 00:24:50;;;;;;;9.07;2.65;;;7.10;99.90;;;;;;5042345;28;20112;-66
2021/01/12 00:27:20;;;;;;;8.10;1.63;;;7.10;99.90;;;;;;5040902;28;20029;-65
2021/01/12 00:29:46;;;;;;;8.07;2.03;;;7.10;99.90;;;;;;5040510;28;20494;-66
2021/01/12 00:32:20;;;;;;;7.80;1.42;;;7.20;99.90;;;;;;5041870;28;20053;-65
2021/01/12 00:34:45;;;;;;;6.43;1.98;;;7.20;99.90;;;;;;5044920;28;20033;-65
2021/01/12 00:37:11;;;;;;;7.68;2.05;;;7.20;99.90;;;;;;5040113;28;20044;-65
2021/01/12 00:39:37;;;;;;;8.93;2.20;;;7.10;99.90;;;;;;5042542;28;20031;-65
2021/01/12 00:42:03;;;;;;;4.97;1.60;;;7.10;99.90;;;;;;5041598;28;20025;-66
2021/01/12 00:44:29;;;;;;;14.30;2.33;;;7.10;99.90;;;;;;5041784;28;20029;-66
2021/01/12 00:46:57;;;;;;;8.48;1.98;;;7.10;99.90;;;;;;5041339;28;20056;-66
2021/01/12 00:49:24;;;;;;;6.85;1.60;;;7.10;99.90;;;;;;5042658;28;20087;-66
2021/01/12 00:51:50;;;;;;;10.05;1.67;;;7.10;99.90;;;;;;5043009;28;20041;-66
2021/01/12 00:54:18;;;;;;;7.00;1.90;;;7.20;99.90;;;;;;5039375;28;20202;-66
2021/01/12 00:56:44;;;;;;;14.95;2.65;;;7.10;99.90;;;;;;5040056;28;20478;-66
2021/01/12 00:59:10;;;;;;;13.25;1.70;;;7.10;99.90;;;;;;5036684;28;20057;-66
2021/01/12 01:01:39;;;;;;;11.25;1.75;;;7.10;99.90;;;;;;5039754;28;20440;-66
2021/01/12 01:04:05;;;;;;;8.20;2.05;;;7.10;99.90;;;;;;5041906;28;20108;-66
2021/01/12 01:06:31;;;;;;;7.63;1.80;;;7.10;99.90;;;;;;5041077;28;20115;-66
2021/01/12 01:08:57;;;;;;;6.95;2.45;;;7.10;99.90;;;;;;5039503;28;20120;-65
2021/01/12 01:11:23;;;;;;;6.80;1.83;;;7.10;99.90;;;;;;5041790;28;20058;-65
2021/01/12 01:13:48;;;;;;;8.18;1.58;;;7.10;99.90;;;;;;5039137;28;20080;-64
2021/01/12 01:16:14;;;;;;;7.93;1.95;;;7.20;99.90;;;;;;5039695;28;20037;-66
2021/01/12 01:18:40;;;;;;;10.95;2.58;;;7.10;99.90;;;;;;5040216;28;20463;-65
2021/01/12 01:21:05;;;;;;;14.63;2.05;;;7.10;99.90;;;;;;5040089;28;20033;-66
2021/01/12 01:23:31;;;;;;;8.40;2.25;;;7.10;99.90;;;;;;5041211;28;20033;-65
2021/01/12 01:25:57;;;;;;;13.38;2.80;;;7.20;99.90;;;;;;5039383;28;20061;-66
2021/01/12 01:28:23;;;;;;;18.75;2.58;;;7.10;99.90;;;;;;5041613;28;20033;-65
2021/01/12 01:30:50;;;;;;;11.30;2.17;;;7.20;99.90;;;;;;5041438;28;20037;-66
2021/01/12 01:33:15;;;;;;;8.88;2.03;;;7.20;99.90;;;;;;5041162;28;20033;-66
2021/01/12 01:35:44;;;;;;;12.88;2.10;;;7.20;99.90;;;;;;5039396;28;20044;-65
2021/01/12 01:38:10;;;;;;;13.57;2.00;;;7.20;99.90;;;;;;5040716;28;20112;-66
2021/01/12 01:40:36;;;;;;;11.68;2.40;;;7.20;99.90;;;;;;5039835;28;20454;-67
2021/01/12 01:43:01;;;;;;;6.22;2.20;;;7.20;99.90;;;;;;5039522;28;20033;-65
2021/01/12 01:45:27;;;;;;;11.27;2.20;;;7.30;99.90;;;;;;5040216;28;20041;-64
2021/01/12 01:47:53;;;;;;;11.85;2.03;;;7.20;99.90;;;;;;5038066;28;20524;-65
2021/01/12 01:50:20;;;;;;;13.18;2.33;;;7.30;99.90;;;;;;5040106;28;20045;-66
2021/01/12 01:52:54;;;;;;;13.18;2.08;;;7.20;99.90;;;;;;5038590;28;20513;-65
2021/01/12 01:55:21;;;;;;;9.43;1.75;;;7.20;99.90;;;;;;5038051;28;20041;-64
2021/01/12 01:57:47;;;;;;;10.68;2.70;;;7.20;99.90;;;;;;5041666;28;20056;-65
2021/01/12 02:00:16;;;;;;;11.98;2.22;;;7.20;99.90;;;;;;5038289;28;20420;-66
2021/01/12 02:02:53;;;;;;;12.35;3.47;;;7.20;99.90;;;;;;5039569;28;20048;-65
2021/01/12 02:05:23;;;;;;;7.05;1.95;;;7.20;99.90;;;;;;5037431;28;20116;-65
2021/01/12 02:07:50;;;;;;;16.53;2.97;;;7.30;99.90;;;;;;5036318;28;20410;-66
2021/01/12 02:10:19;;;;;;;26.00;3.97;;;7.30;99.90;;;;;;5037633;28;20111;-65
2021/01/12 02:12:53;;;;;;;10.50;2.97;;;7.30;99.90;;;;;;5040451;28;20060;-66
2021/01/12 02:15:22;;;;;;;9.30;2.10;;;7.40;99.90;;;;;;5033211;28;20064;-65
2021/01/12 02:17:49;;;;;;;10.20;2.13;;;7.40;99.90;;;;;;5052713;28;20041;-66
2021/01/12 02:20:15;;;;;;;12.48;2.50;;;7.50;99.90;;;;;;5040965;28;20040;-65
2021/01/12 02:22:44;;;;;;;14.38;2.13;;;7.50;99.90;;;;;;5038433;28;20049;-66
2021/01/12 02:25:10;;;;;;;17.63;2.75;;;7.50;99.90;;;;;;5040234;28;20106;-66
2021/01/12 02:27:35;;;;;;;8.32;2.40;;;7.50;99.90;;;;;;5039464;28;20502;-66
2021/01/12 02:30:01;;;;;;;12.23;2.22;;;7.50;99.90;;;;;;5039272;28;20048;-65
2021/01/12 02:32:26;;;;;;;15.10;2.13;;;7.50;99.90;;;;;;5038183;28;20510;-66
2021/01/12 02:34:54;;;;;;;12.88;2.22;;;7.50;99.90;;;;;;5039186;28;20758;-66
2021/01/12 02:37:21;;;;;;;12.57;2.70;;;7.50;99.90;;;;;;5037023;28;20459;-67
2021/01/12 02:40:00;;;;;;;7.90;2.50;;;7.60;99.90;;;;;;5052520;28;20037;-65
2021/01/12 02:42:26;;;;;;;11.55;1.92;;;7.70;99.90;;;;;;5037995;28;20059;-65
2021/01/12 02:44:52;;;;;;;8.18;1.95;;;7.70;99.90;;;;;;5040663;28;20494;-66
2021/01/12 02:47:17;;;;;;;10.63;1.90;;;7.70;99.90;;;;;;5037395;28;20453;-65
2021/01/12 02:49:43;;;;;;;8.88;1.90;;;7.60;99.90;;;;;;5040490;28;20025;-65
2021/01/12 02:52:13;;;;;;;10.05;1.90;;;7.60;99.90;;;;;;5037920;28;20095;-66
2021/01/12 02:54:42;;;;;;;13.73;2.10;;;7.70;99.90;;;;;;5039487;28;20090;-65
2021/01/12 02:57:08;;;;;;;7.90;1.58;;;7.70;99.90;;;;;;5037879;28;20288;-64
2021/01/12 02:59:34;;;;;;;9.85;1.48;;;7.70;99.90;;;;;;5038830;28;20053;-65
2021/01/12 03:02:00;;;;;;;15.15;2.20;;;7.70;99.90;;;;;;5039121;28;20460;-65
2021/01/12 03:04:25;;;;;;;8.02;1.52;;;7.70;99.90;;;;;;5037626;28;20095;-66
2021/01/12 03:06:51;;;;;;;9.07;1.50;;;7.70;99.90;;;;;;5039864;28;20835;-65
2021/01/12 03:09:16;;;;;;;10.10;1.60;;;7.70;99.90;;;;;;5037110;28;20560;-65
2021/01/12 03:11:42;;;;;;;6.60;1.63;;;7.70;99.90;;;;;;5040273;28;20079;-65
2021/01/12 03:14:08;;;;;;;7.35;1.42;;;7.70;99.90;;;;;;5038091;28;20557;-65
2021/01/12 03:16:36;;;;;;;9.82;1.27;;;7.70;99.90;;;;;;5038587;28;20379;-64
2021/01/12 03:19:03;;;;;;;10.20;1.60;;;7.70;99.90;;;;;;5040644;28;20589;-65
2021/01/12 03:21:29;;;;;;;7.30;1.63;;;7.80;99.90;;;;;;5038482;28;20030;-65
2021/01/12 03:23:55;;;;;;;8.15;1.70;;;7.80;99.90;;;;;;5038122;28;20448;-65
2021/01/12 03:26:21;;;;;;;5.65;1.55;;;7.80;99.90;;;;;;5043713;28;20514;-64
2021/01/12 03:28:47;;;;;;;7.15;1.60;;;7.70;99.90;;;;;;5040390;28;20052;-65
2021/01/12 03:31:12;;;;;;;8.95;1.38;;;7.80;99.90;;;;;;5044336;28;20029;-65
2021/01/12 03:33:38;;;;;;;9.95;1.63;;;7.80;99.90;;;;;;5039269;28;20086;-64
2021/01/12 03:36:04;;;;;;;12.27;1.95;;;7.80;99.90;;;;;;5042988;28;20060;-65
2021/01/12 03:38:29;;;;;;;17.38;1.75;;;7.80;99.90;;;;;;5040624;28;20434;-64
2021/01/12 03:40:55;;;;;;;11.13;1.50;;;7.80;99.90;;;;;;5041392;28;20115;-65
2021/01/12 03:43:21;;;;;;;7.45;1.67;;;7.80;99.90;;;;;;5041527;28;20174;-66
2021/01/12 03:45:46;;;;;;;5.57;1.27;;;7.80;99.90;;;;;;5039723;28;20033;-64
2021/01/12 03:48:12;;;;;;;4.30;1.70;;;7.80;99.90;;;;;;5043563;28;20068;-66
2021/01/12 03:50:37;;;;;;;9.80;2.10;;;7.80;99.90;;;;;;5040007;28;20029;-65
2021/01/12 03:53:03;;;;;;;8.40;1.40;;;7.80;99.90;;;;;;5042428;28;20038;-64
2021/01/12 03:55:30;;;;;;;10.93;1.98;;;7.80;99.90;;;;;;5041381;28;20033;-65
2021/01/12 03:57:55;;;;;;;7.13;1.17;;;7.80;99.90;;;;;;5041010;28;20053;-66
2021/01/12 04:00:21;;;;;;;9.25;1.50;;;7.80;99.90;;;;;;5042586;28;20309;-65
2021/01/12 04:02:46;;;;;;;8.25;2.28;;;7.80;99.90;;;;;;5039818;28;20108;-66
2021/01/12 04:05:12;;;;;;;8.98;2.40;;;7.80;99.90;;;;;;5043405;28;20037;-65
2021/01/12 04:07:38;;;;;;;13.73;1.83;;;7.90;99.90;;;;;;5039481;28;20056;-66
2021/01/12 04:10:06;;;;;;;11.95;1.42;;;7.90;99.90;;;;;;5041215;28;20032;-65
2021/01/12 04:12:31;;;;;;;10.07;1.40;;;7.90;99.90;;;;;;5040607;28;20063;-63
2021/01/12 04:14:57;;;;;;;9.75;2.15;;;7.90;99.90;;;;;;5040953;28;20505;-66
2021/01/12 04:17:22;;;;;;;8.30;1.00;;;7.90;99.90;;;;;;5041545;28;20512;-64
2021/01/12 04:19:48;;;;;;;7.60;1.75;;;8.00;99.90;;;;;;5043363;28;20123;-65
2021/01/12 04:22:13;;;;;;;3.70;0.93;;;8.00;99.90;;;;;;5043129;28;20037;-65
2021/01/12 04:24:39;;;;;;;18.20;1.42;;;8.00;99.90;;;;;;5038816;28;20033;-70
2021/01/12 04:27:04;;;;;;;10.93;1.92;;;8.00;99.90;;;;;;5040033;28;20053;-66
2021/01/12 04:29:30;;;;;;;11.50;1.67;;;8.00;99.90;;;;;;5041745;28;20030;-65
2021/01/12 04:31:55;;;;;;;12.82;2.00;;;8.10;99.90;;;;;;5040638;28;20551;-66
2021/01/12 04:34:21;;;;;;;7.93;1.33;;;8.10;99.90;;;;;;5040232;28;20036;-65
2021/01/12 04:36:46;;;;;;;5.20;1.17;;;8.10;99.90;;;;;;5040822;28;20025;-65
2021/01/12 04:39:12;;;;;;;10.77;1.15;;;8.10;99.90;;;;;;5038197;28;20394;-65
2021/01/12 04:41:37;;;;;;;4.85;1.00;;;8.10;99.90;;;;;;5042757;28;20066;-63
2021/01/12 04:44:03;;;;;;;10.48;1.58;;;8.10;99.90;;;;;;5039516;28;20095;-65
2021/01/12 04:46:29;;;;;;;8.80;0.95;;;8.00;99.90;;;;;;5040177;28;20124;-66
2021/01/12 04:48:55;;;;;;;14.60;1.05;;;8.20;99.90;;;;;;5040603;28;20516;-66
2021/01/12 04:51:24;;;;;;;9.32;1.00;;;8.20;99.90;;;;;;5040309;28;20038;-65
2021/01/12 04:53:49;;;;;;;9.95;1.48;;;8.10;99.90;;;;;;5041208;28;20123;-65
2021/01/12 04:56:19;;;;;;;14.25;1.70;;;8.10;99.90;;;;;;5038145;28;20116;-65
2021/01/12 04:58:50;;;;;;;6.32;1.05;;;8.00;99.90;;;;;;5040596;28;20064;-65
2021/01/12 05:01:18;;;;;;;6.85;1.23;;;8.10;99.90;;;;;;5038034;28;20041;-65
2021/01/12 05:03:45;;;;;;;10.82;1.20;;;8.10;99.90;;;;;;5041844;28;20037;-66
2021/01/12 05:06:12;;;;;;;10.80;1.33;;;8.20;99.90;;;;;;5038349;28;20061;-65
2021/01/12 05:08:56;;;;;;;8.95;0.90;;;8.20;99.90;;;;;;5041837;28;20041;-65
2021/01/12 05:11:34;;;;;;;12.80;1.70;;;8.20;99.90;;;;;;5040092;28;20068;-64
2021/01/12 05:14:04;;;;;;;9.70;1.52;;;8.20;99.90;;;;;;5038985;28;20025;-65
2021/01/12 05:16:31;;;;;;;10.25;1.52;;;8.30;99.90;;;;;;5041540;28;20509;-64
2021/01/12 05:18:58;;;;;;;4.45;1.23;;;8.20;99.90;;;;;;5038748;28;20438;-65
2021/01/12 05:21:26;;;;;;;7.60;1.60;;;8.20;99.90;;;;;;5040526;28;20080;-65
2021/01/12 05:24:08;;;;;;;3.65;0.68;;;8.30;99.90;;;;;;5040924;28;20115;-65
2021/01/12 05:26:36;;;;;;;7.55;0.90;;;8.30;99.90;;;;;;5042048;28;20524;-64
2021/01/12 05:29:03;;;;;;;10.82;0.63;;;8.20;99.90;;;;;;5039443;28;20546;-65
2021/01/12 05:31:29;;;;;;;7.25;0.80;;;8.20;99.90;;;;;;5042284;28;20044;-65
2021/01/12 05:33:55;;;;;;;11.65;0.90;;;8.20;99.90;;;;;;5048605;28;20392;-65
2021/01/12 05:36:21;;;;;;;2.60;0.60;;;8.20;99.90;;;;;;5049152;28;20036;-66
2021/01/12 05:38:48;;;;;;;7.47;1.05;;;8.10;99.90;;;;;;5048063;28;20639;-65
2021/01/12 05:41:14;;;;;;;3.13;0.47;;;8.10;99.90;;;;;;5049239;28;20037;-65
2021/01/12 05:43:45;;;;;;;5.63;0.65;;;8.10;99.90;;;;;;5049455;28;20044;-64
2021/01/12 05:46:14;;;;;;;11.52;0.85;;;8.10;99.90;;;;;;5068714;22;20037;-60
2021/01/12 05:48:42;;;;;;;9.73;0.90;;;8.00;99.90;;;;;;5059394;28;20036;-60
2021/01/12 05:51:09;;;;;;;6.68;0.68;;;8.00;99.90;;;;;;5046805;28;20036;-59
2021/01/12 05:54:04;;;;;;;7.28;0.68;;;7.90;99.90;;;;;;5042953;28;20039;-64
2021/01/12 05:56:31;;;;;;;5.43;1.20;;;7.90;99.90;;;;;;5045131;28;20028;-60
2021/01/12 05:58:59;;;;;;;5.88;0.70;;;7.90;99.90;;;;;;5050165;28;20120;-61
2021/01/12 06:01:49;;;;;;;8.35;1.00;;;7.90;99.90;;;;;;5052733;28;20040;-60
2021/01/12 06:04:15;;;;;;;10.77;1.35;;;7.90;99.90;;;;;;5061837;28;20029;-60
2021/01/12 06:06:46;;;;;;;12.95;0.90;;;7.90;99.90;;;;;;5052833;28;20029;-62
2021/01/12 06:09:12;;;;;;;;;;;7.90;99.90;;;;;;5056019;28;20036;-60
2021/01/12 06:11:40;;;;;;;8.00;0.88;;;7.80;99.90;;;;;;5055384;28;20696;-61
2021/01/12 06:14:13;;;;;;;5.40;1.20;;;7.80;99.90;;;;;;5050384;28;20040;-59
2021/01/12 06:16:42;;;;;;;9.48;1.23;;;7.80;99.90;;;;;;5048406;28;20116;-61
2021/01/12 06:19:18;;;;;;;7.28;0.85;;;7.80;99.90;;;;;;5051990;28;20128;-59
2021/01/12 06:21:55;;;;;;;5.78;1.08;;;7.80;99.90;;;;;;5050020;28;20044;-59
2021/01/12 06:24:33;;;;;;;3.25;0.60;;;7.80;99.90;;;;;;5047159;28;20033;-61
2021/01/12 06:26:59;;;;;;;10.90;0.68;;;7.80;99.90;;;;;;5049604;28;20131;-61
2021/01/12 06:29:28;;;;;;;5.57;1.05;;;7.70;99.90;;;;;;5048497;28;20029;-62
2021/01/12 06:31:56;;;;;;;12.43;0.80;;;7.80;99.90;;;;;;5049068;28;20032;-61
2021/01/12 06:34:22;;;;;;;5.50;0.95;;;7.70;99.90;;;;;;5050076;28;20025;-62
2021/01/12 06:36:51;;;;;;;4.18;0.65;;;7.70;99.90;;;;;;5048922;28;20529;-60
2021/01/12 06:39:20;;;;;;;4.70;0.75;;;7.70;99.90;;;;;;5045134;28;20564;-61
2021/01/12 06:41:48;;;;;;;2.92;0.38;;;7.70;99.90;;;;;;5047621;28;20032;-60
2021/01/12 06:44:24;;;;;;;3.78;0.45;;;7.70;99.90;;;;;;5047853;28;20024;-60
2021/01/12 06:46:52;;;;;;;6.57;0.63;;;7.60;99.90;;;;;;5048903;28;20037;-62
2021/01/12 06:49:23;;;;;;;3.88;0.40;;;7.60;99.90;;;;;;5047925;28;20220;-60
2021/01/12 06:52:12;;;;;;;5.78;0.65;;;7.60;99.90;;;;;;5046933;28;20090;-62
2021/01/12 06:54:40;;;;;;;4.75;0.70;;;7.60;99.90;;;;;;5046294;28;20215;-63
2021/01/12 06:57:11;;;;;;;3.95;0.70;;;7.60;99.90;;;;;;5047232;28;20489;-60
2021/01/12 06:59:40;;;;;;;4.35;0.40;;;7.60;99.90;;;;;;5048920;28;20060;-62
2021/01/12 07:02:30;;;;;;;4.15;0.45;;;7.50;99.90;;;;;;5049187;28;20025;-64
2021/01/12 07:05:05;;;;;;;1.48;0.40;;;7.50;99.90;;;;;;5038956;28;20033;-62
2021/01/12 07:07:38;;;;;;;1.98;0.28;;;7.40;99.90;;;;;;5047861;28;20037;-61
2021/01/12 07:10:10;;;;;;;2.53;0.50;;;7.40;99.90;;;;;;5047428;28;20037;-61
2021/01/12 07:12:36;;;;;;;8.00;0.60;;;7.40;99.90;;;;;;5052012;28;20375;-62
2021/01/12 07:15:12;;;;;;;2.60;0.50;;;7.40;99.90;;;;;;5050980;28;20082;-63
2021/01/12 07:17:42;;;;;;;8.60;0.50;;;7.40;99.90;;;;;;5048527;28;20182;-62
2021/01/12 07:20:09;;;;;;;4.15;0.68;;;7.40;99.90;;;;;;5051140;28;20033;-62
2021/01/12 07:22:37;;;;;;;1.98;0.40;;;7.40;99.90;;;;;;5051263;28;20125;-60
2021/01/12 07:25:05;;;;;;;2.30;0.32;;;7.40;99.90;;;;;;5046465;28;20562;-60
2021/01/12 07:27:31;;;;;;;5.35;0.40;;;7.40;99.90;;;;;;5045500;28;20060;-62
2021/01/12 07:29:59;;;;;;;2.42;0.40;;;7.40;99.90;;;;;;5049320;28;20079;-60
2021/01/12 07:32:30;;;;;;;2.92;0.47;;;7.40;99.90;;;;;;5043401;28;20086;-61
2021/01/12 07:34:58;;;;;;;5.35;0.50;;;7.40;99.90;;;;;;5050548;28;20112;-59
2021/01/12 07:37:33;;;;;;;2.42;0.38;;;7.40;99.90;;;;;;5051252;28;20033;-63
2021/01/12 07:39:59;;;;;;;4.18;0.47;;;7.40;99.90;;;;;;5046590;28;20041;-61
2021/01/12 07:42:25;;;;;;;5.40;0.43;;;7.40;99.90;;;;;;5051006;28;20040;-63
2021/01/12 07:44:51;;;;;;;5.32;0.40;;;7.40;99.90;;;;;;5050813;28;20028;-59
2021/01/12 07:47:17;;;;;;;16.83;1.38;;;7.40;99.90;;;;;;5050322;28;20036;-60
2021/01/12 07:49:46;;;;;;;7.32;0.75;;;7.40;99.90;;;;;;5050275;28;20033;-60
2021/01/12 07:52:11;;;;;;;5.72;0.43;;;7.40;99.90;;;;;;5049896;28;21195;-60
2021/01/12 07:54:37;;;;;;;4.45;0.88;;;7.40;99.90;;;;;;5050575;28;20029;-61
2021/01/12 07:57:03;;;;;;;2.88;0.50;;;7.40;99.90;;;;;;5049484;28;20036;-62
2021/01/12 07:59:29;;;;;;;4.63;0.50;;;7.40;99.90;;;;;;5050142;28;20041;-60
2021/01/12 08:01:56;;;;;;;3.25;0.50;;;7.40;99.90;;;;;;5050440;28;20033;-60
2021/01/12 08:04:21;;;;;;;4.75;0.70;;;7.40;99.90;;;;;;5049930;28;20048;-60
2021/01/12 08:06:47;;;;;;;3.63;0.75;;;7.40;99.90;;;;;;5050553;28;20033;-60
2021/01/12 08:09:21;;;;;;;0.98;0.52;;;7.30;99.90;;;;;;5050179;28;20452;-59
2021/01/12 08:11:48;;;;;;;4.28;0.55;;;7.30;99.90;;;;;;5050124;28;20029;-60
2021/01/12 08:14:14;;;;;;;2.65;0.70;;;7.30;99.90;;;;;;5049681;28;20503;-60
2021/01/12 08:16:44;;;;;;;3.65;0.70;;;7.20;99.90;;;;;;5050115;28;20036;-61
2021/01/12 08:19:10;;;;;;;9.20;1.83;;;7.20;99.90;;;;;;5048761;28;20494;-60
2021/01/12 08:21:41;;;;;;;1.75;0.73;;;7.10;99.90;;;;;;5050699;28;20071;-60
2021/01/12 08:24:08;;;;;;;1.98;1.05;;;7.10;99.90;;;;;;5049687;28;20041;-60
2021/01/12 08:26:34;;;;;;;4.20;1.70;;;7.10;99.90;;;;;;5050070;28;20041;-60
2021/01/12 08:28:59;;;;;;;1.00;0.60;;;7.10;99.90;;;;;;5048165;28;20111;-58
2021/01/12 08:31:25;;;;;;;5.07;1.00;;;7.00;99.90;;;;;;5049386;28;20060;-60
2021/01/12 08:33:55;;;;;;;2.92;1.20;;;7.00;99.90;;;;;;5049784;28;20091;-61
2021/01/12 08:36:25;;;;;;;3.70;1.58;;;6.90;99.90;;;;;;5048827;28;20625;-60
2021/01/12 08:38:53;;;;;;;1.20;0.90;;;7.00;99.90;;;;;;5049864;28;20029;-61
2021/01/12 08:41:19;;;;;;;2.67;1.40;;;6.90;99.90;;;;;;5048925;28;20087;-61
2021/01/12 08:43:50;;;;;;;4.20;0.98;;;6.90;99.90;;;;;;5049747;28;20029;-61
2021/01/12 08:46:16;;;;;;;4.90;0.88;;;6.90;99.90;;;;;;5049028;28;20132;-60
2021/01/12 08:48:49;;;;;;;3.72;1.20;;;6.90;99.90;;;;;;5049424;28;20116;-60
2021/01/12 08:51:18;;;;;;;6.10;0.80;;;6.90;99.90;;;;;;5049038;28;20061;-60
2021/01/12 08:53:46;;;;;;;3.35;0.75;;;6.90;99.90;;;;;;5049582;28;20139;-62
2021/01/12 08:56:12;;;;;;;7.53;1.23;;;6.90;99.90;;;;;;5048905;28;20129;-61
2021/01/12 08:58:38;;;;;;;1.55;0.50;;;7.00;99.90;;;;;;5049557;28;20196;-61
2021/01/12 09:01:04;;;;;;;6.22;0.80;;;7.00;99.90;;;;;;5047244;28;20033;-60
2021/01/12 09:03:30;;;;;;;3.70;0.75;;;7.00;99.90;;;;;;5048981;28;20036;-59
2021/01/12 09:05:56;;;;;;;3.65;0.50;;;7.00;99.90;;;;;;5049108;28;20083;-60
2021/01/12 09:08:24;;;;;;;2.47;0.50;;;7.00;99.90;;;;;;5048741;28;20036;-60
2021/01/12 09:10:50;;;;;;;5.55;0.80;;;7.10;99.90;;;;;;5047518;28;20043;-60
2021/01/12 09:13:16;;;;;;;4.55;0.50;;;7.00;99.90;;;;;;5048494;28;20121;-60
2021/01/12 09:15:48;;;;;;;4.07;0.40;;;6.90;99.90;;;;;;5049117;28;20120;-61
2021/01/12 09:18:26;;;;;;;7.10;0.93;;;6.90;99.90;;;;;;5046892;28;20037;-61
2021/01/12 09:21:04;;;;;;;7.90;0.68;;;6.90;99.90;;;;;;5047576;28;20112;-60
2021/01/12 09:23:30;;;;;;;6.90;0.50;;;7.00;99.90;;;;;;5044976;28;20482;-62
2021/01/12 09:26:01;;;;;;;6.63;1.20;;;6.90;99.90;;;;;;5048531;28;20040;-61
2021/01/12 09:28:45;;;;;;;4.90;0.30;;;6.90;99.90;;;;;;5044910;28;20047;-60
2021/01/12 09:31:17;;;;;;;4.28;0.55;;;6.90;99.90;;;;;;5048463;28;20044;-59
2021/01/12 09:33:49;;;;;;;6.32;0.85;;;6.80;99.90;;;;;;5048539;28;20037;-60
2021/01/12 09:36:20;;;;;;;6.35;0.52;;;6.80;99.90;;;;;;5047033;28;20033;-59
2021/01/12 09:38:51;;;;;;;3.63;0.40;;;6.70;99.90;;;;;;5046722;28;20059;-60
2021/01/12 09:41:22;;;;;;;3.67;0.30;;;6.70;99.90;;;;;;5048429;28;20041;-61
2021/01/12 09:43:47;;;;;;;5.72;0.70;;;6.60;99.90;;;;;;5052677;28;20033;-59
2021/01/12 09:46:14;;;;;;;2.63;0.50;;;6.50;99.90;;;;;;5048120;28;20382;-60
2021/01/12 09:48:40;;;;;;;1.95;0.40;;;6.60;99.90;;;;;;5047819;28;20666;-59
2021/01/12 09:51:06;;;;;;;4.07;0.80;;;6.60;99.90;;;;;;5048365;28;20025;-59
2021/01/12 09:53:31;;;;;;;1.77;0.30;;;6.60;99.90;;;;;;5049070;28;20090;-60
2021/01/12 09:55:57;;;;;;;4.22;0.57;;;6.60;99.90;;;;;;5047769;28;20033;-60
2021/01/12 09:58:23;;;;;;;6.55;0.57;;;6.50;99.90;;;;;;5048130;28;20029;-60
2021/01/12 10:00:49;;;;;;;2.63;0.30;;;6.60;99.90;;;;;;5047285;28;20500;-60
2021/01/12 10:03:15;;;;;;;4.45;0.93;;;6.50;99.90;;;;;;5046268;28;20047;-60
2021/01/12 10:05:41;;;;;;;7.55;0.80;;;6.50;99.90;;;;;;5048189;28;20505;-60
2021/01/12 10:08:07;;;;;;;6.55;0.38;;;6.60;99.90;;;;;;5047213;28;20025;-60
2021/01/12 10:10:34;;;;;;;8.35;0.95;;;6.60;99.90;;;;;;5046912;28;20059;-59
2021/01/12 10:13:00;;;;;;;3.47;0.17;;;6.60;99.90;;;;;;5047289;28;20017;-60
2021/01/12 10:15:26;;;;;;;5.22;0.70;;;6.60;99.90;;;;;;5047630;28;20044;-60
2021/01/12 10:17:51;;;;;;;15.50;2.08;;;6.50;99.90;;;;;;5047934;28;20122;-60
2021/01/12 10:20:17;;;;;;;5.03;0.80;;;6.50;99.90;;;;;;5049347;28;20037;-60
2021/01/12 10:22:42;;;;;;;7.05;1.10;;;6.50;99.90;;;;;;5048103;28;20132;-59
2021/01/12 10:25:08;;;;;;;5.25;1.13;;;6.50;99.90;;;;;;5047639;28;20390;-60
2021/01/12 10:27:37;;;;;;;7.20;0.50;;;6.40;99.90;;;;;;5047460;28;20417;-61
2021/01/12 10:30:05;;;;;;;1.98;0.38;;;6.40;99.90;;;;;;5047525;28;20808;-59
2021/01/12 10:32:31;;;;;;;5.00;0.82;;;6.40;99.90;;;;;;5047866;28;20045;-61
2021/01/12 10:34:57;;;;;;;4.85;0.95;;;6.20;99.90;;;;;;5046385;28;20033;-60
2021/01/12 10:37:23;;;;;;;1.63;0.20;;;6.20;99.90;;;;;;5046885;28;20021;-60
2021/01/12 10:39:48;;;;;;;4.45;0.57;;;6.30;99.90;;;;;;5046788;28;20029;-59
2021/01/12 10:42:14;;;;;;;6.05;0.93;;;6.20;99.90;;;;;;5046831;28;20029;-59
2021/01/12 10:44:40;;;;;;;2.20;0.30;;;6.20;99.90;;;;;;5047355;28;20136;-60
2021/01/12 10:47:05;;;;;;;6.10;1.15;;;6.40;99.90;;;;;;5043843;28;20040;-60
2021/01/12 10:49:31;;;;;;;8.05;1.08;;;6.50;99.90;;;;;;5050489;28;20037;-60
2021/01/12 10:52:01;;;;;;;2.83;0.47;;;6.60;99.90;;;;;;5047138;28;20037;-59
2021/01/12 10:54:27;;;;;;;2.70;0.68;;;6.60;99.90;;;;;;5046863;28;20077;-61
2021/01/12 10:56:53;;;;;;;8.60;0.52;;;6.60;99.90;;;;;;5046849;28;20116;-61
2021/01/12 10:59:19;;;;;;;6.30;0.38;;;6.50;99.90;;;;;;5046581;28;20033;-60
2021/01/12 11:01:52;;;;;;;6.90;0.63;;;6.50;99.90;;;;;;5045538;28;20124;-60
2021/01/12 11:04:18;;;;;;;10.23;1.15;;;6.50;99.90;;;;;;5036800;28;20099;-60
2021/01/12 11:06:51;;;;;;;4.65;0.30;;;6.50;99.90;;;;;;5047580;28;20047;-61
2021/01/12 11:09:22;;;;;;;7.00;1.00;;;6.60;99.90;;;;;;5044111;28;20040;-59
2021/01/12 11:11:49;;;;;;;5.60;0.40;;;6.80;99.90;;;;;;5044285;28;20057;-60
2021/01/12 11:14:18;;;;;;;3.22;0.57;;;6.90;99.90;;;;;;5046175;28;20508;-60
2021/01/12 11:16:44;;;;;;;3.28;0.30;;;6.90;99.90;;;;;;5045691;28;20029;-59
2021/01/12 11:19:10;;;;;;;4.20;0.40;;;6.90;99.90;;;;;;5045832;28;20051;-60
2021/01/12 11:21:47;;;;;;;2.92;0.60;;;6.80;99.90;;;;;;5045913;28;20481;-59
2021/01/12 11:24:19;;;;;;;8.70;0.65;;;6.80;99.90;;;;;;5045673;28;20033;-60
2021/01/12 11:26:44;;;;;;;7.25;1.10;;;6.70;99.90;;;;;;5038227;28;20041;-60
2021/01/12 11:29:11;;;;;;;10.10;0.55;;;6.70;99.90;;;;;;5042342;28;20065;-61
2021/01/12 11:31:37;;;;;;;5.95;1.15;;;6.70;99.90;;;;;;5042296;28;20029;-62
2021/01/12 11:34:03;;;;;;;4.93;0.68;;;6.60;99.90;;;;;;5043881;28;20731;-61
2021/01/12 11:36:39;;;;;;;9.10;0.45;;;6.60;99.90;;;;;;5039955;28;20037;-59
2021/01/12 11:39:05;;;;;;;9.32;0.70;;;6.60;99.90;;;;;;5043943;28;20145;-62
2021/01/12 11:41:31;;;;;;;8.40;1.63;;;6.60;99.90;;;;;;5044305;28;20043;-60
2021/01/12 11:57:20;;;;;;;7.07;1.05;;;6.10;99.90;;;;;;5429242;22;20497;-61
2021/01/12 11:59:46;;;;;;;5.78;1.25;;;6.10;99.90;;;;;;5062944;28;20029;-61
2021/01/12 12:02:12;;;;;;;13.35;0.55;;;6.10;99.90;;;;;;5061444;28;20032;-59
2021/01/12 12:04:37;;;;;;;6.90;0.80;;;6.10;99.90;;;;;;5061813;28;20043;-60
2021/01/12 12:07:03;;;;;;;2.53;0.60;;;6.20;99.90;;;;;;5063257;28;20037;-61
2021/01/12 12:09:33;;;;;;;5.93;0.70;;;6.20;99.90;;;;;;5085172;22;20052;-65
2021/01/12 12:12:00;;;;;;;4.78;0.45;;;6.20;99.90;;;;;;5061051;28;20028;-66
2021/01/12 12:14:26;;;;;;;5.22;1.02;;;6.30;99.90;;;;;;5063438;28;20037;-65
2021/01/12 12:16:54;;;;;;;11.15;1.38;;;6.30;99.90;;;;;;5062876;28;20032;-66
2021/01/12 12:19:20;;;;;;;3.90;0.60;;;6.40;99.90;;;;;;5064392;28;20060;-65
2021/01/12 12:21:54;;;;;;;3.70;0.70;;;6.40;99.90;;;;;;5065460;28;20097;-65
2021/01/12 12:24:22;;;;;;;5.57;1.10;;;6.40;99.90;;;;;;5061595;28;20103;-65
2021/01/12 12:26:49;;;;;;;2.55;0.45;;;6.40;99.90;;;;;;5060880;28;20033;-66
2021/01/12 12:29:15;;;;;;;4.95;0.68;;;6.40;99.90;;;;;;5061503;28;20063;-65
2021/01/12 12:31:41;;;;;;;6.90;0.57;;;6.50;99.90;;;;;;5064597;28;20125;-65
2021/01/12 12:34:07;;;;;;;1.58;0.13;;;6.50;99.90;;;;;;5061697;28;20067;-66
2021/01/12 12:36:33;;;;;;;9.82;0.80;;;6.50;99.90;;;;;;5061185;28;20121;-65
2021/01/12 12:38:58;;;;;;;5.72;1.17;;;6.50;99.90;;;;;;5062754;28;20259;-64
2021/01/12 12:41:24;;;;;;;2.10;0.17;;;6.40;99.90;;;;;;5060552;28;20531;-65
2021/01/12 12:43:50;;;;;;;10.20;0.70;;;6.40;99.90;;;;;;5063293;28;20119;-66
2021/01/12 12:46:17;;;;;;;5.95;0.40;;;6.40;99.90;;;;;;5063731;28;20035;-65
2021/01/12 12:48:43;;;;;;;7.03;0.73;;;6.40;99.90;;;;;;5059713;28;20029;-66
2021/01/12 12:51:12;;;;;;;3.55;0.30;;;6.40;99.90;;;;;;5058001;28;20037;-65
2021/01/12 12:53:39;;;;;;;4.10;0.47;;;6.50;99.90;;;;;;5064060;28;20032;-66
2021/01/12 12:56:09;;;;;;;2.92;0.30;;;6.50;99.90;;;;;;5062013;28;20523;-66
2021/01/12 12:58:34;;;;;;;14.53;0.70;;;6.50;99.90;;;;;;5060180;28;20055;-66
2021/01/12 13:01:00;;;;;;;1.00;0.13;;;6.50;99.90;;;;;;5062480;28;20036;-66
2021/01/12 13:03:26;;;;;;;6.15;0.57;;;6.60;99.90;;;;;;5064181;28;20123;-66
2021/01/12 13:06:38;;;;;;;3.00;0.63;;;6.60;99.90;;;;;;5062319;28;20039;-64
2021/01/12 13:09:04;;;;;;;11.02;0.80;;;6.60;99.90;;;;;;5060431;28;20044;-65
2021/01/12 13:11:30;;;;;;;8.15;0.65;;;6.70;99.90;;;;;;5067840;28;20550;-65